sensor_id;sensor_type;location;lat;lon;timestamp;pressure;altitude;pressure_sealevel;temperature;humidity
73516;BME280;61763;51.416;5.442;2023-03-01T00:01:07;103020.72;;;-1.84;81.73
73516;BME280;61763;51.416;5.442;2023-03-01T00:03:33;103015.59;;;-1.80;81.68
73516;BME280;61763;51.416;5.442;2023-03-01T00:05:59;103017.78;;;-1.68;81.01
73516;BME280;61763;51.416;5.442;2023-03-01T00:08:26;103014.69;;;-1.56;80.32
73516;BME280;61763;51.416;5.442;2023-03-01T00:11:11;103016.56;;;-1.52;79.69
73516;BME280;61763;51.416;5.442;2023-03-01T00:13:38;103016.66;;;-1.49;79.35
73516;BME280;61763;51.416;5.442;2023-03-01T00:16:09;103020.97;;;-1.52;79.83
73516;BME280;61763;51.416;5.442;2023-03-01T00:18:35;103013.13;;;-1.49;79.64
73516;BME280;61763;51.416;5.442;2023-03-01T00:21:01;103014.28;;;-1.67;80.46
73516;BME280;61763;51.416;5.442;2023-03-01T00:23:27;103015.41;;;-1.60;80.29
73516;BME280;61763;51.416;5.442;2023-03-01T00:25:52;103014.44;;;-1.62;80.61
73516;BME280;61763;51.416;5.442;2023-03-01T00:28:18;103016.19;;;-1.63;80.10
73516;BME280;61763;51.416;5.442;2023-03-01T00:30:44;103005.50;;;-1.66;80.87
73516;BME280;61763;51.416;5.442;2023-03-01T00:33:09;103014.75;;;-1.79;81.21
73516;BME280;61763;51.416;5.442;2023-03-01T00:35:35;103009.25;;;-1.85;81.50
73516;BME280;61763;51.416;5.442;2023-03-01T00:38:01;103007.22;;;-1.92;81.95
73516;BME280;61763;51.416;5.442;2023-03-01T00:40:28;103010.66;;;-1.95;82.08
73516;BME280;61763;51.416;5.442;2023-03-01T00:42:54;103008.50;;;-1.81;82.21
73516;BME280;61763;51.416;5.442;2023-03-01T00:45:20;103013.19;;;-1.98;82.92
73516;BME280;61763;51.416;5.442;2023-03-01T00:47:46;103010.25;;;-1.81;82.31
73516;BME280;61763;51.416;5.442;2023-03-01T00:50:12;103004.09;;;-1.80;82.47
73516;BME280;61763;51.416;5.442;2023-03-01T00:52:38;103009.97;;;-1.89;82.41
73516;BME280;61763;51.416;5.442;2023-03-01T00:55:04;103000.16;;;-1.67;81.69
73516;BME280;61763;51.416;5.442;2023-03-01T00:57:30;102998.25;;;-1.71;81.89
73516;BME280;61763;51.416;5.442;2023-03-01T00:59:56;102991.19;;;-1.97;82.44
73516;BME280;61763;51.416;5.442;2023-03-01T01:02:22;102995.38;;;-2.02;83.22
73516;BME280;61763;51.416;5.442;2023-03-01T01:04:48;102989.00;;;-2.08;83.91
73516;BME280;61763;51.416;5.442;2023-03-01T01:07:14;102982.28;;;-2.23;84.66
73516;BME280;61763;51.416;5.442;2023-03-01T01:09:40;102982.28;;;-1.99;84.58
73516;BME280;61763;51.416;5.442;2023-03-01T01:12:06;102990.00;;;-2.05;83.65
73516;BME280;61763;51.416;5.442;2023-03-01T01:14:32;102982.34;;;-2.21;84.18
73516;BME280;61763;51.416;5.442;2023-03-01T01:16:58;102976.00;;;-2.26;85.40
73516;BME280;61763;51.416;5.442;2023-03-01T01:19:24;102977.00;;;-2.23;85.58
73516;BME280;61763;51.416;5.442;2023-03-01T01:21:49;102975.59;;;-2.37;86.24
73516;BME280;61763;51.416;5.442;2023-03-01T01:24:15;102977.34;;;-2.38;86.48
73516;BME280;61763;51.416;5.442;2023-03-01T01:26:41;102971.72;;;-2.47;86.86
73516;BME280;61763;51.416;5.442;2023-03-01T01:29:07;102960.66;;;-2.59;87.21
73516;BME280;61763;51.416;5.442;2023-03-01T01:31:35;102966.47;;;-2.68;88.21
73516;BME280;61763;51.416;5.442;2023-03-01T01:34:02;102958.31;;;-2.74;88.52
73516;BME280;61763;51.416;5.442;2023-03-01T01:36:28;102955.84;;;-2.70;89.10
73516;BME280;61763;51.416;5.442;2023-03-01T01:38:54;102954.91;;;-2.72;89.15
73516;BME280;61763;51.416;5.442;2023-03-01T01:41:21;102952.59;;;-2.62;88.64
73516;BME280;61763;51.416;5.442;2023-03-01T01:43:49;102941.31;;;-2.58;88.56
73516;BME280;61763;51.416;5.442;2023-03-01T01:46:25;102942.09;;;-2.61;88.92
73516;BME280;61763;51.416;5.442;2023-03-01T01:48:57;102952.84;;;-2.56;88.22
73516;BME280;61763;51.416;5.442;2023-03-01T01:51:27;102933.28;;;-2.61;88.58
73516;BME280;61763;51.416;5.442;2023-03-01T01:53:57;102926.28;;;-2.59;89.02
73516;BME280;61763;51.416;5.442;2023-03-01T01:56:26;102928.81;;;-2.62;89.19
73516;BME280;61763;51.416;5.442;2023-03-01T01:58:53;102939.63;;;-2.56;89.13
73516;BME280;61763;51.416;5.442;2023-03-01T02:01:19;102933.38;;;-2.58;89.03
73516;BME280;61763;51.416;5.442;2023-03-01T02:03:46;102929.09;;;-2.79;89.67
73516;BME280;61763;51.416;5.442;2023-03-01T02:06:28;102928.03;;;-2.84;90.73
73516;BME280;61763;51.416;5.442;2023-03-01T02:08:57;102937.38;;;-2.92;90.95
73516;BME280;61763;51.416;5.442;2023-03-01T02:11:25;102922.91;;;-2.79;91.22
73516;BME280;61763;51.416;5.442;2023-03-01T02:13:53;102929.19;;;-2.76;90.18
73516;BME280;61763;51.416;5.442;2023-03-01T02:16:20;102918.50;;;-2.79;90.35
73516;BME280;61763;51.416;5.442;2023-03-01T02:18:46;102920.16;;;-2.83;90.62
73516;BME280;61763;51.416;5.442;2023-03-01T02:21:30;102911.41;;;-2.80;91.07
73516;BME280;61763;51.416;5.442;2023-03-01T02:24:10;102898.09;;;-2.83;91.18
73516;BME280;61763;51.416;5.442;2023-03-01T02:26:48;102905.00;;;-2.87;91.45
73516;BME280;61763;51.416;5.442;2023-03-01T02:29:15;102896.16;;;-2.87;91.26
73516;BME280;61763;51.416;5.442;2023-03-01T02:31:41;102910.91;;;-2.94;91.92
73516;BME280;61763;51.416;5.442;2023-03-01T02:34:09;102900.00;;;-2.79;91.32
73516;BME280;61763;51.416;5.442;2023-03-01T02:36:41;102904.09;;;-2.87;91.95
73516;BME280;61763;51.416;5.442;2023-03-01T02:39:14;102905.13;;;-2.84;92.18
73516;BME280;61763;51.416;5.442;2023-03-01T02:41:48;102909.31;;;-2.89;92.08
73516;BME280;61763;51.416;5.442;2023-03-01T02:44:15;102914.56;;;-2.90;92.54
73516;BME280;61763;51.416;5.442;2023-03-01T02:46:52;102911.34;;;-2.82;92.24
73516;BME280;61763;51.416;5.442;2023-03-01T02:49:26;102915.47;;;-2.90;92.31
73516;BME280;61763;51.416;5.442;2023-03-01T02:52:29;102911.56;;;-3.00;92.75
73516;BME280;61763;51.416;5.442;2023-03-01T02:55:15;102909.75;;;-3.01;93.60
73516;BME280;61763;51.416;5.442;2023-03-01T02:57:45;102916.31;;;-2.91;92.73
73516;BME280;61763;51.416;5.442;2023-03-01T03:00:21;102915.53;;;-2.88;92.89
73516;BME280;61763;51.416;5.442;2023-03-01T03:02:51;102913.31;;;-3.00;93.42
73516;BME280;61763;51.416;5.442;2023-03-01T03:05:23;102911.09;;;-3.12;93.64
73516;BME280;61763;51.416;5.442;2023-03-01T03:07:50;102908.19;;;-3.18;93.96
73516;BME280;61763;51.416;5.442;2023-03-01T03:10:19;102909.75;;;-3.23;94.27
73516;BME280;61763;51.416;5.442;2023-03-01T03:12:53;102903.72;;;-3.21;94.83
73516;BME280;61763;51.416;5.442;2023-03-01T03:15:19;102910.00;;;-3.17;94.40
73516;BME280;61763;51.416;5.442;2023-03-01T03:17:46;102904.53;;;-3.22;95.15
73516;BME280;61763;51.416;5.442;2023-03-01T03:20:13;102905.47;;;-3.20;95.52
73516;BME280;61763;51.416;5.442;2023-03-01T03:22:47;102911.28;;;-3.07;94.45
73516;BME280;61763;51.416;5.442;2023-03-01T03:25:13;102906.34;;;-3.21;95.35
73516;BME280;61763;51.416;5.442;2023-03-01T03:27:41;102906.59;;;-3.14;95.08
73516;BME280;61763;51.416;5.442;2023-03-01T03:30:08;102902.88;;;-2.97;94.28
73516;BME280;61763;51.416;5.442;2023-03-01T03:32:42;102904.41;;;-3.02;94.36
73516;BME280;61763;51.416;5.442;2023-03-01T03:35:15;102904.09;;;-2.87;93.31
73516;BME280;61763;51.416;5.442;2023-03-01T03:37:41;102906.94;;;-2.83;93.52
73516;BME280;61763;51.416;5.442;2023-03-01T03:40:26;102892.28;;;-2.97;93.38
73516;BME280;61763;51.416;5.442;2023-03-01T03:42:52;102902.66;;;-2.79;92.71
73516;BME280;61763;51.416;5.442;2023-03-01T03:45:18;102910.00;;;-2.94;93.68
73516;BME280;61763;51.416;5.442;2023-03-01T03:47:44;102895.66;;;-2.77;93.56
73516;BME280;61763;51.416;5.442;2023-03-01T03:50:11;102898.63;;;-2.92;93.10
73516;BME280;61763;51.416;5.442;2023-03-01T03:52:37;102896.97;;;-2.90;93.52
73516;BME280;61763;51.416;5.442;2023-03-01T03:55:03;102898.91;;;-3.08;93.94
73516;BME280;61763;51.416;5.442;2023-03-01T03:57:28;102893.66;;;-3.07;94.60
73516;BME280;61763;51.416;5.442;2023-03-01T03:59:54;102886.28;;;-2.93;94.45
73516;BME280;61763;51.416;5.442;2023-03-01T04:02:19;102903.47;;;-3.04;94.20
73516;BME280;61763;51.416;5.442;2023-03-01T04:04:50;102890.53;;;-2.96;93.75
73516;BME280;61763;51.416;5.442;2023-03-01T04:07:16;102888.03;;;-3.16;94.60
73516;BME280;61763;51.416;5.442;2023-03-01T04:09:43;102886.22;;;-3.17;95.79
73516;BME280;61763;51.416;5.442;2023-03-01T04:12:09;102883.66;;;-3.15;95.77
73516;BME280;61763;51.416;5.442;2023-03-01T04:14:35;102885.81;;;-3.05;95.23
73516;BME280;61763;51.416;5.442;2023-03-01T04:17:01;102875.78;;;-3.14;95.41
73516;BME280;61763;51.416;5.442;2023-03-01T04:19:29;102882.59;;;-3.21;95.72
73516;BME280;61763;51.416;5.442;2023-03-01T04:22:04;102873.63;;;-3.24;96.30
73516;BME280;61763;51.416;5.442;2023-03-01T04:24:34;102877.91;;;-3.28;96.77
73516;BME280;61763;51.416;5.442;2023-03-01T04:27:00;102870.91;;;-3.26;96.91
73516;BME280;61763;51.416;5.442;2023-03-01T04:29:27;102876.97;;;-3.28;96.41
73516;BME280;61763;51.416;5.442;2023-03-01T04:31:52;102869.69;;;-3.36;96.93
73516;BME280;61763;51.416;5.442;2023-03-01T04:34:18;102868.59;;;-3.41;97.88
73516;BME280;61763;51.416;5.442;2023-03-01T04:36:45;102869.88;;;-3.52;98.00
73516;BME280;61763;51.416;5.442;2023-03-01T04:39:11;102866.34;;;-3.53;98.48
73516;BME280;61763;51.416;5.442;2023-03-01T04:41:40;102868.09;;;-3.53;98.82
73516;BME280;61763;51.416;5.442;2023-03-01T04:44:06;102859.38;;;-3.50;99.04
73516;BME280;61763;51.416;5.442;2023-03-01T04:46:32;102850.44;;;-3.54;98.72
73516;BME280;61763;51.416;5.442;2023-03-01T04:48:57;102845.75;;;-3.61;99.16
73516;BME280;61763;51.416;5.442;2023-03-01T04:51:23;102845.69;;;-3.63;99.42
73516;BME280;61763;51.416;5.442;2023-03-01T04:53:49;102843.06;;;-3.40;98.82
73516;BME280;61763;51.416;5.442;2023-03-01T04:56:15;102843.75;;;-3.46;98.50
73516;BME280;61763;51.416;5.442;2023-03-01T04:58:45;102843.28;;;-3.36;98.15
73516;BME280;61763;51.416;5.442;2023-03-01T05:01:16;102843.00;;;-3.42;97.74
73516;BME280;61763;51.416;5.442;2023-03-01T05:03:50;102854.09;;;-3.50;98.43
73516;BME280;61763;51.416;5.442;2023-03-01T05:06:17;102851.84;;;-3.41;98.81
73516;BME280;61763;51.416;5.442;2023-03-01T05:08:43;102854.31;;;-3.46;98.71
73516;BME280;61763;51.416;5.442;2023-03-01T05:11:09;102862.19;;;-3.47;99.53
73516;BME280;61763;51.416;5.442;2023-03-01T05:13:36;102859.66;;;-3.44;98.55
73516;BME280;61763;51.416;5.442;2023-03-01T05:16:02;102852.72;;;-3.18;96.82
73516;BME280;61763;51.416;5.442;2023-03-01T05:18:30;102848.91;;;-3.26;96.67
73516;BME280;61763;51.416;5.442;2023-03-01T05:21:04;102852.59;;;-3.21;97.03
73516;BME280;61763;51.416;5.442;2023-03-01T05:23:30;102846.44;;;-3.22;96.19
73516;BME280;61763;51.416;5.442;2023-03-01T05:26:00;102839.41;;;-3.21;96.35
73516;BME280;61763;51.416;5.442;2023-03-01T05:28:26;102835.53;;;-3.31;96.73
73516;BME280;61763;51.416;5.442;2023-03-01T05:30:56;102834.78;;;-3.27;97.34
73516;BME280;61763;51.416;5.442;2023-03-01T05:33:22;102831.81;;;-3.13;96.48
73516;BME280;61763;51.416;5.442;2023-03-01T05:35:48;102819.91;;;-3.25;96.23
73516;BME280;61763;51.416;5.442;2023-03-01T05:38:15;102821.47;;;-3.30;96.58
73516;BME280;61763;51.416;5.442;2023-03-01T05:40:46;102802.75;;;-3.36;97.02
73516;BME280;61763;51.416;5.442;2023-03-01T05:43:13;102809.00;;;-3.34;96.73
73516;BME280;61763;51.416;5.442;2023-03-01T05:45:39;102817.53;;;-3.41;96.60
73516;BME280;61763;51.416;5.442;2023-03-01T05:48:07;102817.09;;;-3.52;97.89
73516;BME280;61763;51.416;5.442;2023-03-01T05:50:35;102816.84;;;-3.58;98.31
73516;BME280;61763;51.416;5.442;2023-03-01T05:53:15;102817.50;;;-3.19;96.35
73516;BME280;61763;51.416;5.442;2023-03-01T05:55:42;102809.94;;;-3.32;97.19
73516;BME280;61763;51.416;5.442;2023-03-01T05:58:12;102816.06;;;-3.33;95.88
73516;BME280;61763;51.416;5.442;2023-03-01T06:00:39;102813.66;;;-3.04;95.96
73516;BME280;61763;51.416;5.442;2023-03-01T06:03:05;102805.69;;;-3.28;96.20
73516;BME280;61763;51.416;5.442;2023-03-01T06:05:30;102808.75;;;-3.40;96.95
73516;BME280;61763;51.416;5.442;2023-03-01T06:07:59;102808.47;;;-3.48;97.52
73516;BME280;61763;51.416;5.442;2023-03-01T06:10:25;102802.06;;;-3.55;98.49
73516;BME280;61763;51.416;5.442;2023-03-01T06:12:50;102809.47;;;-3.67;99.12
73516;BME280;61763;51.416;5.442;2023-03-01T06:15:16;102810.44;;;-3.65;99.57
73516;BME280;61763;51.416;5.442;2023-03-01T06:17:43;102810.44;;;-3.65;100.00
73516;BME280;61763;51.416;5.442;2023-03-01T06:20:15;102812.03;;;-3.68;99.77
73516;BME280;61763;51.416;5.442;2023-03-01T06:22:41;102812.22;;;-3.64;99.94
73516;BME280;61763;51.416;5.442;2023-03-01T06:25:08;102808.28;;;-3.53;99.47
73516;BME280;61763;51.416;5.442;2023-03-01T06:27:34;102820.25;;;-3.61;99.97
73516;BME280;61763;51.416;5.442;2023-03-01T06:29:59;102820.25;;;-3.61;99.77
73516;BME280;61763;51.416;5.442;2023-03-01T06:32:25;102819.78;;;-3.73;99.54
73516;BME280;61763;51.416;5.442;2023-03-01T06:34:50;102822.91;;;-3.61;99.80
73516;BME280;61763;51.416;5.442;2023-03-01T06:37:16;102821.72;;;-3.69;99.81
73516;BME280;61763;51.416;5.442;2023-03-01T06:39:41;102821.31;;;-3.57;99.85
73516;BME280;61763;51.416;5.442;2023-03-01T06:42:08;102816.25;;;-3.28;97.91
73516;BME280;61763;51.416;5.442;2023-03-01T06:44:35;102813.41;;;-3.33;97.78
73516;BME280;61763;51.416;5.442;2023-03-01T06:47:00;102815.56;;;-3.23;97.62
73516;BME280;61763;51.416;5.442;2023-03-01T06:49:26;102817.44;;;-3.20;97.79
73516;BME280;61763;51.416;5.442;2023-03-01T06:51:51;102813.91;;;-3.21;97.15
73516;BME280;61763;51.416;5.442;2023-03-01T06:54:16;102810.97;;;-3.28;98.04
73516;BME280;61763;51.416;5.442;2023-03-01T06:56:43;102818.34;;;-3.20;97.89
73516;BME280;61763;51.416;5.442;2023-03-01T06:59:08;102815.81;;;-3.17;97.11
73516;BME280;61763;51.416;5.442;2023-03-01T07:01:33;102811.56;;;-3.13;96.92
73516;BME280;61763;51.416;5.442;2023-03-01T07:03:59;102807.09;;;-3.14;96.91
73516;BME280;61763;51.416;5.442;2023-03-01T07:06:24;102800.66;;;-3.22;97.69
73516;BME280;61763;51.416;5.442;2023-03-01T07:08:49;102794.94;;;-3.33;97.90
73516;BME280;61763;51.416;5.442;2023-03-01T07:11:15;102804.53;;;-3.12;97.58
73516;BME280;61763;51.416;5.442;2023-03-01T07:13:41;102808.81;;;-2.92;96.53
73516;BME280;61763;51.416;5.442;2023-03-01T07:16:06;102811.34;;;-2.95;95.84
73516;BME280;61763;51.416;5.442;2023-03-01T07:18:32;102830.31;;;-2.83;95.16
73516;BME280;61763;51.416;5.442;2023-03-01T07:20:57;102830.47;;;-2.78;95.15
73516;BME280;61763;51.416;5.442;2023-03-01T07:23:23;102830.00;;;-2.66;94.54
73516;BME280;61763;51.416;5.442;2023-03-01T07:25:52;102827.41;;;-2.65;94.09
73516;BME280;61763;51.416;5.442;2023-03-01T07:28:18;102837.44;;;-2.56;93.46
73516;BME280;61763;51.416;5.442;2023-03-01T07:30:44;102831.06;;;-2.37;92.41
73516;BME280;61763;51.416;5.442;2023-03-01T07:33:09;102824.16;;;-2.32;91.95
73516;BME280;61763;51.416;5.442;2023-03-01T07:35:35;102832.09;;;-2.32;91.71
73516;BME280;61763;51.416;5.442;2023-03-01T07:38:00;102834.78;;;-2.30;91.22
73516;BME280;61763;51.416;5.442;2023-03-01T07:40:26;102826.31;;;-2.20;91.10
73516;BME280;61763;51.416;5.442;2023-03-01T07:42:58;102826.84;;;-2.04;89.99
73516;BME280;61763;51.416;5.442;2023-03-01T07:45:25;102821.63;;;-2.03;88.98
73516;BME280;61763;51.416;5.442;2023-03-01T07:47:51;102828.09;;;-1.93;88.89
73516;BME280;61763;51.416;5.442;2023-03-01T07:50:17;102828.63;;;-1.78;87.90
73516;BME280;61763;51.416;5.442;2023-03-01T07:52:45;102828.94;;;-1.67;87.32
73516;BME280;61763;51.416;5.442;2023-03-01T07:55:11;102819.38;;;-1.63;86.53
73516;BME280;61763;51.416;5.442;2023-03-01T07:57:36;102823.78;;;-1.35;85.52
73516;BME280;61763;51.416;5.442;2023-03-01T08:00:02;102818.56;;;-1.32;84.98
73516;BME280;61763;51.416;5.442;2023-03-01T08:02:28;102817.00;;;-1.25;83.76
73516;BME280;61763;51.416;5.442;2023-03-01T08:04:53;102822.63;;;-1.14;83.05
73516;BME280;61763;51.416;5.442;2023-03-01T08:07:18;102813.22;;;-1.04;83.21
73516;BME280;61763;51.416;5.442;2023-03-01T08:09:44;102818.03;;;-0.90;82.09
73516;BME280;61763;51.416;5.442;2023-03-01T08:12:10;102807.78;;;-0.77;81.28
73516;BME280;61763;51.416;5.442;2023-03-01T08:14:35;102815.97;;;-0.68;80.68
73516;BME280;61763;51.416;5.442;2023-03-01T08:17:01;102817.75;;;-0.68;80.85
73516;BME280;61763;51.416;5.442;2023-03-01T08:19:28;102810.03;;;-0.59;80.17
73516;BME280;61763;51.416;5.442;2023-03-01T08:21:54;102808.75;;;-0.42;79.36
73516;BME280;61763;51.416;5.442;2023-03-01T08:24:20;102805.59;;;-0.27;78.53
73516;BME280;61763;51.416;5.442;2023-03-01T08:26:45;102797.75;;;-0.22;77.52
73516;BME280;61763;51.416;5.442;2023-03-01T08:29:11;102808.03;;;-0.01;77.04
73516;BME280;61763;51.416;5.442;2023-03-01T08:31:38;102810.94;;;0.10;76.92
73516;BME280;61763;51.416;5.442;2023-03-01T08:34:08;102814.81;;;0.24;75.61
73516;BME280;61763;51.416;5.442;2023-03-01T08:36:39;102798.22;;;0.33;75.01
73516;BME280;61763;51.416;5.442;2023-03-01T08:39:06;102804.59;;;0.41;73.93
73516;BME280;61763;51.416;5.442;2023-03-01T08:41:32;102796.28;;;0.65;72.74
73516;BME280;61763;51.416;5.442;2023-03-01T08:43:58;102790.34;;;0.77;72.26
73516;BME280;61763;51.416;5.442;2023-03-01T08:46:28;102790.69;;;0.94;72.10
73516;BME280;61763;51.416;5.442;2023-03-01T08:48:54;102781.91;;;0.98;70.45
73516;BME280;61763;51.416;5.442;2023-03-01T08:51:20;102778.59;;;1.10;69.43
73516;BME280;61763;51.416;5.442;2023-03-01T08:53:47;102783.25;;;1.22;69.13
73516;BME280;61763;51.416;5.442;2023-03-01T08:56:13;102776.38;;;1.32;69.85
73516;BME280;61763;51.416;5.442;2023-03-01T08:58:39;102780.13;;;1.42;68.66
73516;BME280;61763;51.416;5.442;2023-03-01T09:01:09;102780.28;;;1.51;68.18
73516;BME280;61763;51.416;5.442;2023-03-01T09:03:36;102772.53;;;1.66;67.64
73516;BME280;61763;51.416;5.442;2023-03-01T09:06:03;102772.63;;;1.69;66.80
73516;BME280;61763;51.416;5.442;2023-03-01T09:08:29;102770.09;;;1.77;66.74
73516;BME280;61763;51.416;5.442;2023-03-01T09:10:55;102770.22;;;1.86;65.45
73516;BME280;61763;51.416;5.442;2023-03-01T09:13:20;102747.31;;;1.95;65.26
73516;BME280;61763;51.416;5.442;2023-03-01T09:15:48;102758.28;;;2.18;65.01
73516;BME280;61763;51.416;5.442;2023-03-01T09:18:14;102756.84;;;2.41;65.00
73516;BME280;61763;51.416;5.442;2023-03-01T09:20:39;102746.25;;;2.43;62.80
73516;BME280;61763;51.416;5.442;2023-03-01T09:23:04;102751.63;;;2.46;62.54
73516;BME280;61763;51.416;5.442;2023-03-01T09:25:30;102755.13;;;2.43;62.12
73516;BME280;61763;51.416;5.442;2023-03-01T09:27:55;102736.81;;;2.68;61.88
73516;BME280;61763;51.416;5.442;2023-03-01T09:30:21;102744.00;;;2.75;61.22
73516;BME280;61763;51.416;5.442;2023-03-01T09:32:46;102743.28;;;2.87;60.98
73516;BME280;61763;51.416;5.442;2023-03-01T09:35:12;102745.88;;;2.84;60.36
73516;BME280;61763;51.416;5.442;2023-03-01T09:37:38;102739.84;;;2.99;59.88
73516;BME280;61763;51.416;5.442;2023-03-01T09:40:05;102749.84;;;3.20;60.63
73516;BME280;61763;51.416;5.442;2023-03-01T09:42:33;102735.53;;;3.12;59.36
73516;BME280;61763;51.416;5.442;2023-03-01T09:45:27;102727.69;;;3.27;58.48
73516;BME280;61763;51.416;5.442;2023-03-01T09:47:55;102720.59;;;3.29;57.51
73516;BME280;61763;51.416;5.442;2023-03-01T09:50:21;102728.81;;;3.51;57.03
73516;BME280;61763;51.416;5.442;2023-03-01T09:55:38;102712.03;;;3.69;56.81
73516;BME280;61763;51.416;5.442;2023-03-01T09:58:35;102705.81;;;3.67;54.89
73516;BME280;61763;51.416;5.442;2023-03-01T10:09:23;102696.84;;;3.60;54.23
73516;BME280;61763;51.416;5.442;2023-03-01T10:11:52;102695.09;;;3.59;54.36
73516;BME280;61763;51.416;5.442;2023-03-01T10:14:38;102692.53;;;3.76;55.00
73516;BME280;61763;51.416;5.442;2023-03-01T10:22:49;102678.31;;;3.82;55.23
73516;BME280;61763;51.416;5.442;2023-03-01T10:28:26;102663.19;;;3.81;53.85
73516;BME280;61763;51.416;5.442;2023-03-01T10:30:57;102654.44;;;4.02;53.48
73516;BME280;61763;51.416;5.442;2023-03-01T10:33:35;102642.94;;;4.18;52.49
73516;BME280;61763;51.416;5.442;2023-03-01T10:36:02;102654.53;;;4.28;51.92
73516;BME280;61763;51.416;5.442;2023-03-01T10:38:31;102654.47;;;4.13;51.90
73516;BME280;61763;51.416;5.442;2023-03-01T10:43:25;102642.91;;;4.12;51.85
73516;BME280;61763;51.416;5.442;2023-03-01T10:45:53;102652.81;;;4.39;51.68
73516;BME280;61763;51.416;5.442;2023-03-01T10:48:24;102656.31;;;4.21;51.90
73516;BME280;61763;51.416;5.442;2023-03-01T10:53:41;102649.38;;;4.76;51.25
73516;BME280;61763;51.416;5.442;2023-03-01T10:56:12;102650.31;;;4.94;50.20
73516;BME280;61763;51.416;5.442;2023-03-01T10:59:26;102652.84;;;4.52;50.86
73516;BME280;61763;51.416;5.442;2023-03-01T11:01:28;102652.94;;;4.77;50.64
73516;BME280;61763;51.416;5.442;2023-03-01T11:06:38;102647.66;;;4.94;50.73
73516;BME280;61763;51.416;5.442;2023-03-01T11:11:40;102643.19;;;4.89;51.46
73516;BME280;61763;51.416;5.442;2023-03-01T11:14:14;102647.66;;;4.90;50.56
73516;BME280;61763;51.416;5.442;2023-03-01T11:16:41;102648.53;;;4.99;50.10
73516;BME280;61763;51.416;5.442;2023-03-01T11:21:38;102650.28;;;4.78;49.22
73516;BME280;61763;51.416;5.442;2023-03-01T11:24:09;102636.06;;;5.08;49.20
73516;BME280;61763;51.416;5.442;2023-03-01T11:26:40;102628.03;;;5.19;50.15
73516;BME280;61763;51.416;5.442;2023-03-01T11:29:26;102638.75;;;5.18;48.71
73516;BME280;61763;51.416;5.442;2023-03-01T11:31:58;102641.38;;;4.95;48.87
73516;BME280;61763;51.416;5.442;2023-03-01T11:34:35;102628.94;;;5.01;49.18
73516;BME280;61763;51.416;5.442;2023-03-01T11:37:10;102628.03;;;5.18;48.90
73516;BME280;61763;51.416;5.442;2023-03-01T11:39:45;102616.44;;;5.28;48.49
73516;BME280;61763;51.416;5.442;2023-03-01T11:42:15;102622.72;;;5.33;47.88
73516;BME280;61763;51.416;5.442;2023-03-01T11:44:47;102620.00;;;5.19;47.79
73516;BME280;61763;51.416;5.442;2023-03-01T11:52:48;102619.13;;;5.30;48.02
73516;BME280;61763;51.416;5.442;2023-03-01T11:55:54;102617.34;;;5.19;47.06
73516;BME280;61763;51.416;5.442;2023-03-01T12:01:10;102607.53;;;5.32;45.97
73516;BME280;61763;51.416;5.442;2023-03-01T12:06:59;102596.78;;;5.61;45.99
73516;BME280;61763;51.416;5.442;2023-03-01T12:12:25;102587.00;;;5.28;46.73
73516;BME280;61763;51.416;5.442;2023-03-01T12:20:30;102581.59;;;5.60;46.75
73516;BME280;61763;51.416;5.442;2023-03-01T12:37:32;102558.41;;;5.64;47.07
73516;BME280;61763;51.416;5.442;2023-03-01T12:45:34;102546.72;;;5.84;46.53
73516;BME280;61763;51.416;5.442;2023-03-01T12:50:55;102534.22;;;5.98;46.01
73516;BME280;61763;51.416;5.442;2023-03-01T12:53:29;102532.44;;;5.85;46.48
73516;BME280;61763;51.416;5.442;2023-03-01T12:56:15;102536.88;;;6.00;46.06
73516;BME280;61763;51.416;5.442;2023-03-01T13:01:31;102524.44;;;5.71;46.36
73516;BME280;61763;51.416;5.442;2023-03-01T13:17:51;102507.53;;;5.59;47.71
73516;BME280;61763;51.416;5.442;2023-03-01T13:20:25;102498.56;;;5.70;47.50
73516;BME280;61763;51.416;5.442;2023-03-01T13:23:05;102488.72;;;5.72;47.07
73516;BME280;61763;51.416;5.442;2023-03-01T13:25:32;102486.97;;;5.61;47.23
73516;BME280;61763;51.416;5.442;2023-03-01T13:31:09;102482.44;;;5.81;47.00
73516;BME280;61763;51.416;5.442;2023-03-01T13:36:08;102482.50;;;5.60;47.32
73516;BME280;61763;51.416;5.442;2023-03-01T13:41:48;102464.63;;;5.72;46.31
73516;BME280;61763;51.416;5.442;2023-03-01T13:46:57;102453.91;;;5.73;46.32
73516;BME280;61763;51.416;5.442;2023-03-01T13:49:28;102459.25;;;5.75;46.22
73516;BME280;61763;51.416;5.442;2023-03-01T13:51:54;102438.81;;;5.52;46.27
73516;BME280;61763;51.416;5.442;2023-03-01T13:54:29;102429.00;;;5.51;46.67
73516;BME280;61763;51.416;5.442;2023-03-01T13:56:57;102451.31;;;5.46;46.85
73516;BME280;61763;51.416;5.442;2023-03-01T13:59:23;102445.91;;;5.55;47.12
73516;BME280;61763;51.416;5.442;2023-03-01T14:01:55;102443.22;;;5.56;46.18
73516;BME280;61763;51.416;5.442;2023-03-01T14:04:24;102426.28;;;5.59;46.35
73516;BME280;61763;51.416;5.442;2023-03-01T14:06:51;102427.19;;;5.59;45.94
73516;BME280;61763;51.416;5.442;2023-03-01T14:09:40;102428.06;;;5.60;45.48
73516;BME280;61763;51.416;5.442;2023-03-01T14:15:29;102421.78;;;5.69;45.84
73516;BME280;61763;51.416;5.442;2023-03-01T14:20:44;102418.16;;;5.77;45.10
73516;BME280;61763;51.416;5.442;2023-03-01T14:23:22;102418.19;;;5.71;45.45
73516;BME280;61763;51.416;5.442;2023-03-01T14:25:50;102410.13;;;5.76;45.63
73516;BME280;61763;51.416;5.442;2023-03-01T14:28:19;102414.50;;;5.91;45.92
73516;BME280;61763;51.416;5.442;2023-03-01T14:30:48;102407.41;;;5.82;45.84
73516;BME280;61763;51.416;5.442;2023-03-01T14:36:12;102416.41;;;5.72;46.97
73516;BME280;61763;51.416;5.442;2023-03-01T14:38:46;102421.69;;;5.81;46.89
73516;BME280;61763;51.416;5.442;2023-03-01T14:41:16;102411.94;;;5.71;46.98
73516;BME280;61763;51.416;5.442;2023-03-01T14:43:46;102419.13;;;5.63;46.18
73516;BME280;61763;51.416;5.442;2023-03-01T14:46:38;102403.88;;;5.74;46.43
73516;BME280;61763;51.416;5.442;2023-03-01T14:49:19;102400.25;;;5.81;45.92
73516;BME280;61763;51.416;5.442;2023-03-01T14:51:52;102389.56;;;5.79;46.16
73516;BME280;61763;51.416;5.442;2023-03-01T14:54:26;102386.06;;;5.70;46.16